Terminal Aerodrome Forecast
Issued by NWS Glasgow, MT

Home | Current Version | Previous Version | Text Only | Print | Product List | Glossary On
Versions: 1 2 3 4 5 6 7 8 9 10 11 12 13 14
000
FTUS45 KGGW 231100
TAFGGW
TAF
KGGW 231134Z 2312/2412 11009KT P6SM SCT150
     FM231700 11018G25KT P6SM SCT250
     FM240200 11020G28KT P6SM VCTS SCT070CB BKN120
     FM240800 10014KT P6SM BKN200=

USA.gov is the U.S. government's official web portal to all federal, state and local government web resources and services.